Skip Navigation Links
NOAA logo - Click to go to the NOAA homepage
NOAA's National Weather Service
Alaska Aviation Weather Unit
  NWS logo - Click to go to the NWS homepage
Left Navbar Graphic     21 AKDT = 05 GMT

   
NOAA is celebrating 200 years of science, service, and stewardship. Visit the NOAA 200th celebration Web site to learn more.
USA.gov is the U.S. Government's official Web portal to all Federal, state and local government Web resources and services.
Facebook
NWS on Facebook

AAWU Home :: Display TAF Add Bookmark
METAR PAKK 262316Z AUTO 01005KT 10SM FEW030 09/M06 A2957 RMK AO1=

METAR PAKK 262336Z AUTO 35006KT 10SM CLR 09/M06 A2957 RMK AO1=

METAR PAKK 262356Z AUTO 02005KT 10SM CLR 08/M06 A2956 RMK AO1 10090
     20040 400900020 54000=

METAR PAKK 270016Z AUTO 01003KT 10SM CLR 09/M05 A2957 RMK AO1=

METAR PAKK 270036Z AUTO 02006KT 10SM CLR 09/M06 A2957 RMK AO1=

METAR PAKK 270056Z AUTO 03007KT 10SM CLR 09/M05 A2956 RMK AO1=

METAR PAKK 270116Z AUTO 01005KT 10SM FEW038 09/M06 A2956 RMK AO1=

METAR PAKK 270136Z AUTO 01006KT 10SM FEW038 08/M06 A2957 RMK AO1=

METAR PAKK 270156Z AUTO 01005KT 10SM FEW038 08/M06 A2956 RMK AO1=

METAR PAKK 270216Z AUTO 36004KT 10SM CLR 08/M06 A2957 RMK AO1=

METAR PAKK 270236Z AUTO 02007KT 10SM CLR 09/M05 A2957 RMK AO1=

METAR PAKK 270256Z AUTO 35007KT 10SM CLR 09/M06 A2957 RMK AO1 52003=

METAR PAKK 270316Z AUTO 01005KT 10SM CLR 08/M06 A2957 RMK AO1=

METAR PAKK 270336Z AUTO 01009KT 330V030 10SM CLR 08/M06 A2957 RMK
 AO1=

METAR PAKK 270356Z AUTO 35006KT 10SM CLR 08/M06 A2957 RMK AO1=

METAR PAKK 270416Z AUTO 35008KT 260V020 10SM CLR 08/M06 A2957 RMK
 AO1=

METAR PAKK 270436Z AUTO 35006KT 330V030 10SM CLR 07/M06 A2958 RMK
     AO1=

METAR PAKK 270456Z AUTO 35007KT 10SM CLR 07/M06 A2958 RMK AO1=


NOAA's National Weather Service
Alaska Aviation Weather Unit
6930 Sand Lake Road
Anchorage, AK 99502-1845
Disclaimer
Credits
Glossary
Privacy Policy
About Us
Career Opportunities
Contact AAWU Internet Services Site last modified: April, 17th 2012